sensor_id;sensor_type;location;lat;lon;timestamp;temperature;humidity
7498;DHT22;3790;48.806;9.140;2023-04-20T00:00:50;3.10;99.90
7498;DHT22;3790;48.806;9.140;2023-04-20T00:05:51;3.00;99.90
7498;DHT22;3790;48.806;9.140;2023-04-20T00:10:51;2.90;99.90
7498;DHT22;3790;48.806;9.140;2023-04-20T00:15:52;2.80;99.90
7498;DHT22;3790;48.806;9.140;2023-04-20T00:20:52;2.80;99.90
7498;DHT22;3790;48.806;9.140;2023-04-20T00:25:53;2.70;99.90
7498;DHT22;3790;48.806;9.140;2023-04-20T00:30:53;3.00;99.90
7498;DHT22;3790;48.806;9.140;2023-04-20T00:35:54;3.30;99.90
7498;DHT22;3790;48.806;9.140;2023-04-20T00:40:55;3.20;99.90
7498;DHT22;3790;48.806;9.140;2023-04-20T00:45:56;3.30;99.90
7498;DHT22;3790;48.806;9.140;2023-04-20T00:50:56;3.10;99.90
7498;DHT22;3790;48.806;9.140;2023-04-20T00:55:57;3.10;99.90
7498;DHT22;3790;48.806;9.140;2023-04-20T01:00:58;3.20;99.90
7498;DHT22;3790;48.806;9.140;2023-04-20T01:05:58;3.30;99.90
7498;DHT22;3790;48.806;9.140;2023-04-20T01:11:00;3.10;99.90
7498;DHT22;3790;48.806;9.140;2023-04-20T01:16:00;2.80;99.90
7498;DHT22;3790;48.806;9.140;2023-04-20T01:21:01;2.90;99.90
7498;DHT22;3790;48.806;9.140;2023-04-20T01:26:10;2.90;99.90
7498;DHT22;3790;48.806;9.140;2023-04-20T01:31:11;2.80;99.90
7498;DHT22;3790;48.806;9.140;2023-04-20T01:36:12;2.50;99.90
7498;DHT22;3790;48.806;9.140;2023-04-20T01:41:15;2.30;99.90
7498;DHT22;3790;48.806;9.140;2023-04-20T01:46:15;2.10;99.90
7498;DHT22;3790;48.806;9.140;2023-04-20T01:51:16;1.90;99.90
7498;DHT22;3790;48.806;9.140;2023-04-20T01:56:16;1.70;99.90
7498;DHT22;3790;48.806;9.140;2023-04-20T02:01:17;1.70;99.90
7498;DHT22;3790;48.806;9.140;2023-04-20T02:06:17;1.70;99.90
7498;DHT22;3790;48.806;9.140;2023-04-20T02:11:18;1.70;99.90
7498;DHT22;3790;48.806;9.140;2023-04-20T02:16:18;1.70;99.90
7498;DHT22;3790;48.806;9.140;2023-04-20T02:21:19;1.80;99.90
7498;DHT22;3790;48.806;9.140;2023-04-20T02:26:19;1.80;99.90
7498;DHT22;3790;48.806;9.140;2023-04-20T02:31:20;1.70;99.90
7498;DHT22;3790;48.806;9.140;2023-04-20T02:36:20;1.50;99.90
7498;DHT22;3790;48.806;9.140;2023-04-20T02:41:21;1.50;99.90
7498;DHT22;3790;48.806;9.140;2023-04-20T02:46:21;1.60;99.90
7498;DHT22;3790;48.806;9.140;2023-04-20T02:51:22;1.60;99.90
7498;DHT22;3790;48.806;9.140;2023-04-20T02:56:22;1.70;99.90
7498;DHT22;3790;48.806;9.140;2023-04-20T03:01:23;1.60;99.90
7498;DHT22;3790;48.806;9.140;2023-04-20T03:06:23;1.30;99.90
7498;DHT22;3790;48.806;9.140;2023-04-20T03:11:24;1.30;99.90
7498;DHT22;3790;48.806;9.140;2023-04-20T03:16:25;1.40;99.90
7498;DHT22;3790;48.806;9.140;2023-04-20T03:21:25;1.40;99.90
7498;DHT22;3790;48.806;9.140;2023-04-20T03:26:26;1.30;99.90
7498;DHT22;3790;48.806;9.140;2023-04-20T03:31:26;1.30;99.90
7498;DHT22;3790;48.806;9.140;2023-04-20T03:36:27;1.20;99.90
7498;DHT22;3790;48.806;9.140;2023-04-20T03:41:27;1.00;99.90
7498;DHT22;3790;48.806;9.140;2023-04-20T03:46:28;0.90;99.90
7498;DHT22;3790;48.806;9.140;2023-04-20T03:51:28;0.90;99.90
7498;DHT22;3790;48.806;9.140;2023-04-20T03:56:29;0.90;99.90
7498;DHT22;3790;48.806;9.140;2023-04-20T04:01:30;0.80;99.90
7498;DHT22;3790;48.806;9.140;2023-04-20T04:06:31;0.70;99.90
7498;DHT22;3790;48.806;9.140;2023-04-20T04:11:31;0.60;99.90
7498;DHT22;3790;48.806;9.140;2023-04-20T04:16:32;0.60;99.90
7498;DHT22;3790;48.806;9.140;2023-04-20T04:21:33;0.80;99.90
7498;DHT22;3790;48.806;9.140;2023-04-20T04:26:33;0.90;99.90
7498;DHT22;3790;48.806;9.140;2023-04-20T04:31:34;1.20;99.90
7498;DHT22;3790;48.806;9.140;2023-04-20T04:36:34;1.20;99.90
7498;DHT22;3790;48.806;9.140;2023-04-20T04:41:35;0.80;99.90
7498;DHT22;3790;48.806;9.140;2023-04-20T04:46:36;0.80;99.90
7498;DHT22;3790;48.806;9.140;2023-04-20T04:51:39;0.90;99.90
7498;DHT22;3790;48.806;9.140;2023-04-20T04:56:40;1.10;99.90
7498;DHT22;3790;48.806;9.140;2023-04-20T05:01:40;1.30;99.90
7498;DHT22;3790;48.806;9.140;2023-04-20T05:06:41;1.50;99.90
7498;DHT22;3790;48.806;9.140;2023-04-20T05:11:41;1.70;99.90
7498;DHT22;3790;48.806;9.140;2023-04-20T05:16:42;1.90;99.90
7498;DHT22;3790;48.806;9.140;2023-04-20T05:21:42;2.60;99.90
7498;DHT22;3790;48.806;9.140;2023-04-20T05:26:43;2.80;99.90
7498;DHT22;3790;48.806;9.140;2023-04-20T05:31:43;2.80;99.90
7498;DHT22;3790;48.806;9.140;2023-04-20T05:36:45;2.80;99.90
7498;DHT22;3790;48.806;9.140;2023-04-20T05:41:46;2.90;99.90
7498;DHT22;3790;48.806;9.140;2023-04-20T05:46:46;3.00;99.90
7498;DHT22;3790;48.806;9.140;2023-04-20T05:51:47;3.00;99.90
7498;DHT22;3790;48.806;9.140;2023-04-20T05:56:47;3.20;99.90
7498;DHT22;3790;48.806;9.140;2023-04-20T06:01:48;3.20;99.90
7498;DHT22;3790;48.806;9.140;2023-04-20T06:06:49;3.40;99.90
7498;DHT22;3790;48.806;9.140;2023-04-20T06:11:50;3.50;99.90
7498;DHT22;3790;48.806;9.140;2023-04-20T06:16:50;3.60;99.90
7498;DHT22;3790;48.806;9.140;2023-04-20T06:21:51;3.70;99.90
7498;DHT22;3790;48.806;9.140;2023-04-20T06:26:51;3.90;99.90
7498;DHT22;3790;48.806;9.140;2023-04-20T06:31:52;4.10;99.90
7498;DHT22;3790;48.806;9.140;2023-04-20T06:36:53;4.10;99.90
7498;DHT22;3790;48.806;9.140;2023-04-20T06:41:53;4.20;99.90
7498;DHT22;3790;48.806;9.140;2023-04-20T06:46:54;4.40;99.90
7498;DHT22;3790;48.806;9.140;2023-04-20T06:51:54;4.50;99.90
7498;DHT22;3790;48.806;9.140;2023-04-20T06:56:55;4.70;99.90
7498;DHT22;3790;48.806;9.140;2023-04-20T07:01:55;4.80;99.90
7498;DHT22;3790;48.806;9.140;2023-04-20T07:06:56;5.00;99.90
7498;DHT22;3790;48.806;9.140;2023-04-20T07:11:56;5.10;99.90
7498;DHT22;3790;48.806;9.140;2023-04-20T07:16:57;5.30;99.90
7498;DHT22;3790;48.806;9.140;2023-04-20T07:21:57;5.40;99.90
7498;DHT22;3790;48.806;9.140;2023-04-20T07:26:58;5.60;99.90
7498;DHT22;3790;48.806;9.140;2023-04-20T07:31:58;5.70;99.90
7498;DHT22;3790;48.806;9.140;2023-04-20T07:36:59;5.70;99.90
7498;DHT22;3790;48.806;9.140;2023-04-20T07:42:01;5.90;99.90
7498;DHT22;3790;48.806;9.140;2023-04-20T07:47:02;6.90;99.90
7498;DHT22;3790;48.806;9.140;2023-04-20T07:52:03;7.80;99.90
7498;DHT22;3790;48.806;9.140;2023-04-20T07:57:04;8.50;99.90
7498;DHT22;3790;48.806;9.140;2023-04-20T08:02:05;8.60;99.90
7498;DHT22;3790;48.806;9.140;2023-04-20T08:07:06;8.70;99.90
7498;DHT22;3790;48.806;9.140;2023-04-20T08:12:06;9.10;99.90
7498;DHT22;3790;48.806;9.140;2023-04-20T08:17:07;9.70;99.90
7498;DHT22;3790;48.806;9.140;2023-04-20T08:22:07;10.10;99.90
7498;DHT22;3790;48.806;9.140;2023-04-20T08:27:08;10.10;99.90
7498;DHT22;3790;48.806;9.140;2023-04-20T08:32:09;10.40;99.90
7498;DHT22;3790;48.806;9.140;2023-04-20T08:37:11;10.00;99.90
7498;DHT22;3790;48.806;9.140;2023-04-20T08:42:12;9.80;99.90
7498;DHT22;3790;48.806;9.140;2023-04-20T08:47:13;9.60;99.90
7498;DHT22;3790;48.806;9.140;2023-04-20T08:52:14;8.90;99.90
7498;DHT22;3790;48.806;9.140;2023-04-20T08:57:14;8.50;99.90
7498;DHT22;3790;48.806;9.140;2023-04-20T09:02:15;8.20;99.90
7498;DHT22;3790;48.806;9.140;2023-04-20T09:07:17;8.00;99.90
7498;DHT22;3790;48.806;9.140;2023-04-20T09:12:18;7.90;99.90
7498;DHT22;3790;48.806;9.140;2023-04-20T09:17:35;7.70;99.90
7498;DHT22;3790;48.806;9.140;2023-04-20T09:22:36;8.00;99.90
7498;DHT22;3790;48.806;9.140;2023-04-20T09:27:37;8.10;99.90
7498;DHT22;3790;48.806;9.140;2023-04-20T09:32:38;8.10;99.90
7498;DHT22;3790;48.806;9.140;2023-04-20T09:37:47;8.10;99.90
7498;DHT22;3790;48.806;9.140;2023-04-20T09:42:49;8.00;99.90
7498;DHT22;3790;48.806;9.140;2023-04-20T09:47:51;8.20;99.90
7498;DHT22;3790;48.806;9.140;2023-04-20T09:52:52;8.40;99.90
7498;DHT22;3790;48.806;9.140;2023-04-20T09:57:53;8.70;99.90
7498;DHT22;3790;48.806;9.140;2023-04-20T10:02:55;8.80;99.90
7498;DHT22;3790;48.806;9.140;2023-04-20T10:07:59;8.80;99.90
7498;DHT22;3790;48.806;9.140;2023-04-20T10:13:01;8.60;99.90
7498;DHT22;3790;48.806;9.140;2023-04-20T10:18:01;8.50;99.90
7498;DHT22;3790;48.806;9.140;2023-04-20T10:23:08;8.40;99.90
7498;DHT22;3790;48.806;9.140;2023-04-20T10:28:13;8.80;99.90
7498;DHT22;3790;48.806;9.140;2023-04-20T10:33:14;9.20;99.90
7498;DHT22;3790;48.806;9.140;2023-04-20T10:38:15;9.30;99.90
7498;DHT22;3790;48.806;9.140;2023-04-20T10:43:19;9.00;99.90
7498;DHT22;3790;48.806;9.140;2023-04-20T10:48:20;8.90;99.90
7498;DHT22;3790;48.806;9.140;2023-04-20T10:53:23;9.10;99.90
7498;DHT22;3790;48.806;9.140;2023-04-20T10:58:25;8.90;99.90
7498;DHT22;3790;48.806;9.140;2023-04-20T11:03:27;8.50;99.90
7498;DHT22;3790;48.806;9.140;2023-04-20T11:08:40;8.50;99.90
7498;DHT22;3790;48.806;9.140;2023-04-20T11:13:41;8.30;99.90
7498;DHT22;3790;48.806;9.140;2023-04-20T11:18:54;7.80;99.90
7498;DHT22;3790;48.806;9.140;2023-04-20T11:23:55;7.80;99.90
7498;DHT22;3790;48.806;9.140;2023-04-20T11:28:56;7.50;99.90
7498;DHT22;3790;48.806;9.140;2023-04-20T11:33:57;7.30;99.90
7498;DHT22;3790;48.806;9.140;2023-04-20T11:39:07;7.30;99.90
7498;DHT22;3790;48.806;9.140;2023-04-20T11:44:08;7.20;99.90
7498;DHT22;3790;48.806;9.140;2023-04-20T11:49:10;7.10;99.90
7498;DHT22;3790;48.806;9.140;2023-04-20T11:54:11;7.10;99.90
7498;DHT22;3790;48.806;9.140;2023-04-20T11:59:12;7.20;99.90
7498;DHT22;3790;48.806;9.140;2023-04-20T12:04:18;7.50;99.90
7498;DHT22;3790;48.806;9.140;2023-04-20T12:09:19;7.50;99.90
7498;DHT22;3790;48.806;9.140;2023-04-20T12:14:20;7.90;99.90
7498;DHT22;3790;48.806;9.140;2023-04-20T12:19:20;7.90;99.90
7498;DHT22;3790;48.806;9.140;2023-04-20T12:24:21;7.80;99.90
7498;DHT22;3790;48.806;9.140;2023-04-20T12:29:21;7.80;99.90
7498;DHT22;3790;48.806;9.140;2023-04-20T12:34:22;7.80;99.90
7498;DHT22;3790;48.806;9.140;2023-04-20T12:39:22;8.00;99.90
7498;DHT22;3790;48.806;9.140;2023-04-20T12:44:23;8.00;99.90
7498;DHT22;3790;48.806;9.140;2023-04-20T12:49:23;8.20;99.90
7498;DHT22;3790;48.806;9.140;2023-04-20T12:54:24;8.20;99.90
7498;DHT22;3790;48.806;9.140;2023-04-20T12:59:25;8.40;99.90
7498;DHT22;3790;48.806;9.140;2023-04-20T13:04:25;8.80;99.90
7498;DHT22;3790;48.806;9.140;2023-04-20T13:09:26;9.10;99.90
7498;DHT22;3790;48.806;9.140;2023-04-20T13:14:26;9.60;99.90
7498;DHT22;3790;48.806;9.140;2023-04-20T13:19:30;9.70;99.90
7498;DHT22;3790;48.806;9.140;2023-04-20T13:24:30;9.60;99.90
7498;DHT22;3790;48.806;9.140;2023-04-20T13:29:31;9.40;99.90
7498;DHT22;3790;48.806;9.140;2023-04-20T13:34:31;9.50;99.90
7498;DHT22;3790;48.806;9.140;2023-04-20T13:39:32;9.40;99.90
7498;DHT22;3790;48.806;9.140;2023-04-20T13:44:33;9.30;99.90
7498;DHT22;3790;48.806;9.140;2023-04-20T13:49:33;9.20;99.90
7498;DHT22;3790;48.806;9.140;2023-04-20T13:54:34;8.90;99.90
7498;DHT22;3790;48.806;9.140;2023-04-20T13:59:34;8.80;99.90
7498;DHT22;3790;48.806;9.140;2023-04-20T14:04:35;8.90;99.90
7498;DHT22;3790;48.806;9.140;2023-04-20T14:09:36;9.00;99.90
7498;DHT22;3790;48.806;9.140;2023-04-20T14:14:37;9.10;99.90
7498;DHT22;3790;48.806;9.140;2023-04-20T14:19:37;9.10;99.90
7498;DHT22;3790;48.806;9.140;2023-04-20T14:24:38;8.90;99.90
7498;DHT22;3790;48.806;9.140;2023-04-20T14:29:40;8.80;99.90
7498;DHT22;3790;48.806;9.140;2023-04-20T14:34:40;8.60;99.90
7498;DHT22;3790;48.806;9.140;2023-04-20T14:39:41;8.40;99.90
7498;DHT22;3790;48.806;9.140;2023-04-20T14:44:47;8.20;99.90
7498;DHT22;3790;48.806;9.140;2023-04-20T14:49:50;8.20;99.90
7498;DHT22;3790;48.806;9.140;2023-04-20T14:54:51;8.00;99.90
7498;DHT22;3790;48.806;9.140;2023-04-20T14:59:51;7.80;99.90
7498;DHT22;3790;48.806;9.140;2023-04-20T15:04:51;7.60;99.90
7498;DHT22;3790;48.806;9.140;2023-04-20T15:09:52;7.50;99.90
7498;DHT22;3790;48.806;9.140;2023-04-20T15:14:53;7.30;99.90
7498;DHT22;3790;48.806;9.140;2023-04-20T15:19:53;7.10;99.90
7498;DHT22;3790;48.806;9.140;2023-04-20T15:24:54;7.00;99.90
7498;DHT22;3790;48.806;9.140;2023-04-20T15:29:55;7.10;99.90
7498;DHT22;3790;48.806;9.140;2023-04-20T15:34:57;7.20;99.90
7498;DHT22;3790;48.806;9.140;2023-04-20T15:39:58;7.30;99.90
7498;DHT22;3790;48.806;9.140;2023-04-20T15:45:00;7.30;99.90
7498;DHT22;3790;48.806;9.140;2023-04-20T15:50:01;7.40;99.90
7498;DHT22;3790;48.806;9.140;2023-04-20T15:55:02;7.30;99.90
7498;DHT22;3790;48.806;9.140;2023-04-20T16:00:03;7.30;99.90
7498;DHT22;3790;48.806;9.140;2023-04-20T16:05:05;7.30;99.90
7498;DHT22;3790;48.806;9.140;2023-04-20T16:10:07;7.30;99.90
7498;DHT22;3790;48.806;9.140;2023-04-20T16:15:08;7.40;99.90
7498;DHT22;3790;48.806;9.140;2023-04-20T16:20:09;7.50;99.90
7498;DHT22;3790;48.806;9.140;2023-04-20T16:25:09;7.50;99.90
7498;DHT22;3790;48.806;9.140;2023-04-20T16:30:12;7.60;99.90
7498;DHT22;3790;48.806;9.140;2023-04-20T16:35:13;7.40;99.90
7498;DHT22;3790;48.806;9.140;2023-04-20T16:40:14;7.20;99.90
7498;DHT22;3790;48.806;9.140;2023-04-20T16:45:14;7.10;99.90
7498;DHT22;3790;48.806;9.140;2023-04-20T16:50:15;7.00;99.90
7498;DHT22;3790;48.806;9.140;2023-04-20T16:55:18;6.90;99.90
7498;DHT22;3790;48.806;9.140;2023-04-20T17:00:19;7.00;99.90
7498;DHT22;3790;48.806;9.140;2023-04-20T17:05:20;6.90;99.90
7498;DHT22;3790;48.806;9.140;2023-04-20T17:10:21;7.00;99.90
7498;DHT22;3790;48.806;9.140;2023-04-20T17:15:22;7.00;99.90
7498;DHT22;3790;48.806;9.140;2023-04-20T17:20:22;7.10;99.90
7498;DHT22;3790;48.806;9.140;2023-04-20T17:25:23;7.20;99.90
7498;DHT22;3790;48.806;9.140;2023-04-20T17:30:23;7.20;99.90
7498;DHT22;3790;48.806;9.140;2023-04-20T17:35:24;7.30;99.90
7498;DHT22;3790;48.806;9.140;2023-04-20T17:40:25;7.20;99.90
7498;DHT22;3790;48.806;9.140;2023-04-20T17:45:25;7.20;99.90
7498;DHT22;3790;48.806;9.140;2023-04-20T17:50:26;7.20;99.90
7498;DHT22;3790;48.806;9.140;2023-04-20T17:55:26;7.40;99.90
7498;DHT22;3790;48.806;9.140;2023-04-20T18:00:27;7.40;99.90
7498;DHT22;3790;48.806;9.140;2023-04-20T18:05:27;7.40;99.90
7498;DHT22;3790;48.806;9.140;2023-04-20T18:10:28;7.30;99.90
7498;DHT22;3790;48.806;9.140;2023-04-20T18:15:28;7.30;99.90
7498;DHT22;3790;48.806;9.140;2023-04-20T18:20:29;7.20;99.90
7498;DHT22;3790;48.806;9.140;2023-04-20T18:25:32;7.20;99.90
7498;DHT22;3790;48.806;9.140;2023-04-20T18:30:32;7.20;99.90
7498;DHT22;3790;48.806;9.140;2023-04-20T18:35:33;7.30;99.90
7498;DHT22;3790;48.806;9.140;2023-04-20T18:40:33;7.20;99.90
7498;DHT22;3790;48.806;9.140;2023-04-20T18:45:34;7.10;99.90
7498;DHT22;3790;48.806;9.140;2023-04-20T18:50:34;7.30;99.90
7498;DHT22;3790;48.806;9.140;2023-04-20T18:55:35;7.20;99.90
7498;DHT22;3790;48.806;9.140;2023-04-20T19:00:36;7.30;99.90
7498;DHT22;3790;48.806;9.140;2023-04-20T19:05:37;7.40;99.90
7498;DHT22;3790;48.806;9.140;2023-04-20T19:10:40;7.40;99.90
7498;DHT22;3790;48.806;9.140;2023-04-20T19:15:40;7.20;99.90
7498;DHT22;3790;48.806;9.140;2023-04-20T19:20:41;7.30;99.90
7498;DHT22;3790;48.806;9.140;2023-04-20T19:25:42;7.40;99.90
7498;DHT22;3790;48.806;9.140;2023-04-20T19:30:42;7.30;99.90
7498;DHT22;3790;48.806;9.140;2023-04-20T19:35:43;7.20;99.90
7498;DHT22;3790;48.806;9.140;2023-04-20T19:40:50;7.10;99.90
7498;DHT22;3790;48.806;9.140;2023-04-20T19:45:50;7.10;99.90
7498;DHT22;3790;48.806;9.140;2023-04-20T19:50:51;7.30;99.90
7498;DHT22;3790;48.806;9.140;2023-04-20T19:55:52;7.40;99.90
7498;DHT22;3790;48.806;9.140;2023-04-20T20:00:52;7.50;99.90
7498;DHT22;3790;48.806;9.140;2023-04-20T20:05:53;7.60;99.90
7498;DHT22;3790;48.806;9.140;2023-04-20T20:10:53;7.50;99.90
7498;DHT22;3790;48.806;9.140;2023-04-20T20:15:54;7.60;99.90
7498;DHT22;3790;48.806;9.140;2023-04-20T20:20:54;7.70;99.90
7498;DHT22;3790;48.806;9.140;2023-04-20T20:25:55;7.60;99.90
7498;DHT22;3790;48.806;9.140;2023-04-20T20:30:55;7.60;99.90
7498;DHT22;3790;48.806;9.140;2023-04-20T20:35:56;7.50;99.90
7498;DHT22;3790;48.806;9.140;2023-04-20T20:40:57;7.40;99.90
7498;DHT22;3790;48.806;9.140;2023-04-20T20:45:58;7.40;99.90
7498;DHT22;3790;48.806;9.140;2023-04-20T20:50:58;7.50;99.90
7498;DHT22;3790;48.806;9.140;2023-04-20T20:55:58;7.50;99.90
7498;DHT22;3790;48.806;9.140;2023-04-20T21:00:59;7.40;99.90
7498;DHT22;3790;48.806;9.140;2023-04-20T21:06:00;7.30;99.90
7498;DHT22;3790;48.806;9.140;2023-04-20T21:11:00;7.10;99.90
7498;DHT22;3790;48.806;9.140;2023-04-20T21:16:01;7.10;99.90
7498;DHT22;3790;48.806;9.140;2023-04-20T21:21:01;6.90;99.90
7498;DHT22;3790;48.806;9.140;2023-04-20T21:26:02;6.80;99.90
7498;DHT22;3790;48.806;9.140;2023-04-20T21:31:02;6.80;99.90
7498;DHT22;3790;48.806;9.140;2023-04-20T21:36:03;6.70;99.90
7498;DHT22;3790;48.806;9.140;2023-04-20T21:41:04;6.50;99.90
7498;DHT22;3790;48.806;9.140;2023-04-20T21:46:04;6.40;99.90
7498;DHT22;3790;48.806;9.140;2023-04-20T21:51:05;6.30;99.90
7498;DHT22;3790;48.806;9.140;2023-04-20T21:56:05;6.30;99.90
7498;DHT22;3790;48.806;9.140;2023-04-20T22:01:06;6.10;99.90
7498;DHT22;3790;48.806;9.140;2023-04-20T22:06:07;5.90;99.90
7498;DHT22;3790;48.806;9.140;2023-04-20T22:11:08;5.60;99.90
7498;DHT22;3790;48.806;9.140;2023-04-20T22:16:08;5.40;99.90
7498;DHT22;3790;48.806;9.140;2023-04-20T22:21:09;5.20;99.90
7498;DHT22;3790;48.806;9.140;2023-04-20T22:26:09;5.00;99.90
7498;DHT22;3790;48.806;9.140;2023-04-20T22:31:10;4.90;99.90
7498;DHT22;3790;48.806;9.140;2023-04-20T22:36:10;4.70;99.90
7498;DHT22;3790;48.806;9.140;2023-04-20T22:41:11;4.60;99.90
7498;DHT22;3790;48.806;9.140;2023-04-20T22:46:11;4.60;99.90
7498;DHT22;3790;48.806;9.140;2023-04-20T22:51:14;4.50;99.90
7498;DHT22;3790;48.806;9.140;2023-04-20T22:56:14;4.50;99.90
7498;DHT22;3790;48.806;9.140;2023-04-20T23:01:15;4.40;99.90
7498;DHT22;3790;48.806;9.140;2023-04-20T23:06:15;4.20;99.90
7498;DHT22;3790;48.806;9.140;2023-04-20T23:11:18;4.30;99.90
7498;DHT22;3790;48.806;9.140;2023-04-20T23:16:20;4.30;99.90
7498;DHT22;3790;48.806;9.140;2023-04-20T23:21:20;4.30;99.90
7498;DHT22;3790;48.806;9.140;2023-04-20T23:26:21;4.40;99.90
7498;DHT22;3790;48.806;9.140;2023-04-20T23:31:22;4.50;99.90
7498;DHT22;3790;48.806;9.140;2023-04-20T23:36:23;4.50;99.90
7498;DHT22;3790;48.806;9.140;2023-04-20T23:41:24;4.50;99.90
7498;DHT22;3790;48.806;9.140;2023-04-20T23:46:24;4.60;99.90
7498;DHT22;3790;48.806;9.140;2023-04-20T23:51:25;4.70;99.90
7498;DHT22;3790;48.806;9.140;2023-04-20T23:56:26;4.60;99.90
